Time;durP1;ratioP1;P1;durP2;ratioP2;P2;SDS_P1;SDS_P2;PMS_P1;PMS_P2;Temp;Humidity;BMP_temperature;BMP_pressure;BME280_temperature;BME280_humidity;BME280_pressure;Samples;Min_cycle;Max_cycle;Signal;HPM_P1;HPM_P2
2023/08/18 00:02:15;;;;;;;7.87;7.10;;;23.70;53.30;;;;;;5028347;28;20463;-74
2023/08/18 00:04:41;;;;;;;8.43;7.73;;;23.70;53.30;;;;;;5028777;28;20221;-75
2023/08/18 00:07:07;;;;;;;10.13;7.90;;;23.70;53.30;;;;;;5027488;28;21991;-75
2023/08/18 00:09:33;;;;;;;6.93;6.53;;;23.70;53.30;;;;;;5013858;28;20467;-74
2023/08/18 00:11:58;;;;;;;7.43;7.03;;;23.70;53.30;;;;;;5007662;28;20221;-74
2023/08/18 00:14:24;;;;;;;7.37;6.87;;;23.70;53.30;;;;;;5025673;28;20280;-74
2023/08/18 00:16:50;;;;;;;7.80;7.30;;;23.70;53.30;;;;;;5030174;28;20256;-75
2023/08/18 00:19:15;;;;;;;8.67;8.07;;;23.70;53.30;;;;;;5031666;28;20240;-75
2023/08/18 00:21:41;;;;;;;7.90;7.17;;;23.70;53.30;;;;;;5026043;28;20280;-74
2023/08/18 00:24:07;;;;;;;7.17;6.67;;;23.70;53.30;;;;;;5031106;28;20228;-75
2023/08/18 00:26:32;;;;;;;7.23;6.73;;;23.70;53.30;;;;;;5028297;28;20233;-74
2023/08/18 00:28:58;;;;;;;8.07;7.47;;;23.70;53.30;;;;;;5028874;28;20587;-75
2023/08/18 00:31:24;;;;;;;7.63;7.20;;;23.70;53.30;;;;;;5010418;28;20364;-74
2023/08/18 00:33:50;;;;;;;7.60;7.10;;;23.70;53.30;;;;;;5031379;28;20217;-75
2023/08/18 00:36:16;;;;;;;7.50;6.93;;;23.70;53.30;;;;;;5007052;28;20869;-75
2023/08/18 00:38:41;;;;;;;8.77;7.30;;;23.70;53.30;;;;;;5012172;28;20217;-75
2023/08/18 00:41:07;;;;;;;7.63;7.10;;;23.70;53.30;;;;;;5028945;28;20252;-74
2023/08/18 00:43:33;;;;;;;6.30;6.00;;;23.70;53.30;;;;;;5010188;28;20602;-72
2023/08/18 00:45:58;;;;;;;7.30;6.80;;;23.70;53.30;;;;;;5030917;28;20229;-71
2023/08/18 00:48:24;;;;;;;6.90;6.50;;;23.70;54.10;;;;;;5030363;28;20225;-74
2023/08/18 00:50:51;;;;;;;6.80;6.40;;;23.70;53.30;;;;;;5030493;28;20696;-73
2023/08/18 00:53:17;;;;;;;6.40;6.00;;;23.70;53.30;;;;;;5010476;28;21090;-75
2023/08/18 00:55:45;;;;;;;7.00;6.53;;;23.70;53.30;;;;;;5027488;28;20455;-74
2023/08/18 00:58:11;;;;;;;6.83;6.43;;;23.70;53.30;;;;;;5012373;28;20447;-75
2023/08/18 01:00:38;;;;;;;6.47;6.07;;;23.70;53.30;;;;;;5027151;28;20494;-74
2023/08/18 01:03:04;;;;;;;7.17;6.70;;;23.70;53.30;;;;;;5032296;28;20230;-75
2023/08/18 01:05:31;;;;;;;6.20;5.77;;;23.70;53.30;;;;;;5032557;28;20552;-74
2023/08/18 01:07:56;;;;;;;6.67;6.00;;;23.60;53.20;;;;;;5028909;28;20492;-75
2023/08/18 01:10:26;;;;;;;7.47;6.40;;;23.70;53.30;;;;;;5034094;28;20950;-75
2023/08/18 01:13:06;;;;;;;6.60;6.20;;;23.70;53.30;;;;;;5013683;28;20225;-75
2023/08/18 01:15:37;;;;;;;6.87;6.43;;;23.60;53.20;;;;;;5011131;28;20462;-74
2023/08/18 01:18:05;;;;;;;6.40;6.00;;;23.70;53.30;;;;;;5035175;28;20517;-75
2023/08/18 01:20:32;;;;;;;5.97;5.67;;;23.70;53.30;;;;;;5031488;28;20542;-74
2023/08/18 01:23:02;;;;;;;6.37;5.97;;;23.70;53.30;;;;;;5032915;28;21202;-74
2023/08/18 01:25:29;;;;;;;7.13;6.60;;;23.70;53.30;;;;;;5012968;28;20591;-72
2023/08/18 01:28:00;;;;;;;6.90;6.50;;;23.70;53.30;;;;;;5033446;28;20485;-73
2023/08/18 01:30:50;;;;;;;7.57;6.87;;;23.70;53.30;;;;;;5032085;28;20463;-73
2023/08/18 01:33:23;;;;;;;6.73;6.33;;;23.70;53.30;;;;;;5021540;28;20459;-73
2023/08/18 01:35:51;;;;;;;6.40;6.00;;;23.60;53.20;;;;;;5032271;28;20463;-73
2023/08/18 01:38:20;;;;;;;6.13;5.73;;;23.60;53.20;;;;;;5029396;28;20454;-74
2023/08/18 01:40:47;;;;;;;6.20;5.90;;;23.70;53.30;;;;;;5033129;28;20896;-74
2023/08/18 01:43:13;;;;;;;6.60;6.10;;;23.60;53.20;;;;;;5030573;28;20475;-73
2023/08/18 01:45:38;;;;;;;6.80;6.27;;;23.60;53.20;;;;;;5030494;28;20471;-73
2023/08/18 01:48:04;;;;;;;6.70;6.20;;;23.60;53.20;;;;;;5013961;28;20357;-73
2023/08/18 01:50:29;;;;;;;6.77;6.37;;;23.60;53.20;;;;;;5007872;28;20275;-73
2023/08/18 01:52:55;;;;;;;6.80;6.30;;;23.70;53.30;;;;;;5034811;28;20300;-73
2023/08/18 01:55:20;;;;;;;6.00;5.70;;;23.60;53.20;;;;;;5029106;28;20214;-73
2023/08/18 01:57:46;;;;;;;6.53;6.13;;;23.60;53.20;;;;;;5035063;28;20218;-73
2023/08/18 02:00:12;;;;;;;6.53;6.13;;;23.70;53.30;;;;;;5035080;28;20226;-73
2023/08/18 02:02:38;;;;;;;7.00;5.93;;;23.60;53.20;;;;;;5012459;28;20222;-74
2023/08/18 02:05:04;;;;;;;6.30;5.90;;;23.60;53.20;;;;;;5032049;28;20561;-72
2023/08/18 02:07:29;;;;;;;6.20;5.80;;;23.60;53.20;;;;;;5011749;28;20312;-73
2023/08/18 02:09:55;;;;;;;6.60;6.20;;;23.60;53.30;;;;;;5031718;28;20225;-73
2023/08/18 02:12:20;;;;;;;6.43;6.03;;;23.60;53.20;;;;;;5032228;28;20222;-73
2023/08/18 02:14:46;;;;;;;5.60;5.30;;;23.60;53.20;;;;;;5033214;28;20238;-72
2023/08/18 02:17:12;;;;;;;6.63;6.13;;;23.60;53.20;;;;;;5012309;28;20289;-73
2023/08/18 02:19:37;;;;;;;6.33;5.80;;;23.60;53.20;;;;;;5033603;28;20697;-73
2023/08/18 02:22:03;;;;;;;6.33;5.93;;;23.60;53.20;;;;;;5030376;28;21145;-73
2023/08/18 02:24:28;;;;;;;6.23;5.73;;;23.60;53.20;;;;;;5029831;28;20284;-74
2023/08/18 02:26:55;;;;;;;6.40;6.00;;;23.60;53.20;;;;;;5015160;28;20291;-73
2023/08/18 02:29:21;;;;;;;5.87;5.37;;;23.60;53.20;;;;;;5032132;28;20233;-73
2023/08/18 02:31:47;;;;;;;5.77;5.47;;;23.60;53.20;;;;;;5034148;28;20447;-71
2023/08/18 02:34:12;;;;;;;6.20;5.80;;;23.60;53.20;;;;;;5030935;28;20218;-73
2023/08/18 02:36:38;;;;;;;7.13;6.60;;;23.60;53.20;;;;;;5029320;28;20257;-73
2023/08/18 02:39:04;;;;;;;6.60;6.03;;;23.60;53.20;;;;;;5034025;28;20619;-73
2023/08/18 02:41:29;;;;;;;6.50;6.10;;;23.60;53.20;;;;;;5028796;28;20249;-73
2023/08/18 02:43:55;;;;;;;6.80;6.20;;;23.60;53.30;;;;;;5032854;28;20229;-73
2023/08/18 02:46:20;;;;;;;6.57;6.07;;;23.60;53.30;;;;;;5030041;28;20233;-73
2023/08/18 02:48:46;;;;;;;5.80;5.40;;;23.60;53.30;;;;;;5032162;28;20226;-73
2023/08/18 02:51:11;;;;;;;6.13;5.73;;;23.60;53.30;;;;;;5033382;28;20232;-72
2023/08/18 02:53:37;;;;;;;6.13;5.80;;;23.60;53.20;;;;;;5031377;28;20638;-74
2023/08/18 02:56:03;;;;;;;5.60;5.20;;;23.60;53.20;;;;;;5030482;28;20700;-73
2023/08/18 02:58:31;;;;;;;5.87;5.47;;;23.60;53.20;;;;;;5033174;28;20787;-73
2023/08/18 03:01:05;;;;;;;6.27;5.87;;;23.60;53.20;;;;;;5028966;28;20214;-73
2023/08/18 03:03:30;;;;;;;7.27;6.57;;;23.60;53.20;;;;;;5031829;28;20451;-71
2023/08/18 03:06:04;;;;;;;5.93;5.53;;;23.60;53.20;;;;;;5031620;28;20460;-72
2023/08/18 03:08:30;;;;;;;6.80;6.10;;;23.60;53.20;;;;;;5026403;28;20257;-72
2023/08/18 03:10:57;;;;;;;5.70;5.40;;;23.60;53.20;;;;;;5013420;28;20545;-73
2023/08/18 03:13:23;;;;;;;7.17;6.63;;;23.60;53.20;;;;;;5031138;28;20292;-73
2023/08/18 03:15:49;;;;;;;6.63;6.13;;;23.60;53.20;;;;;;5028260;28;20455;-74
2023/08/18 03:18:14;;;;;;;6.00;5.70;;;23.60;53.20;;;;;;5030865;28;20462;-73
2023/08/18 03:20:40;;;;;;;6.00;5.60;;;23.60;53.20;;;;;;5012241;28;20218;-73
2023/08/18 03:23:06;;;;;;;6.00;5.60;;;23.60;53.20;;;;;;5029070;28;21217;-73
2023/08/18 03:25:31;;;;;;;6.03;5.50;;;23.60;53.20;;;;;;5031295;28;20221;-73
2023/08/18 03:27:57;;;;;;;5.87;5.47;;;23.60;53.20;;;;;;5030928;28;20229;-73
2023/08/18 03:30:22;;;;;;;6.37;5.97;;;23.60;53.20;;;;;;5030926;28;20227;-73
2023/08/18 03:32:50;;;;;;;5.70;5.30;;;23.60;53.20;;;;;;5030118;28;20260;-74
2023/08/18 03:35:16;;;;;;;6.00;5.70;;;23.60;53.20;;;;;;5007420;28;20225;-73
2023/08/18 03:37:41;;;;;;;5.47;5.07;;;23.60;53.30;;;;;;5014428;28;20920;-74
2023/08/18 03:40:07;;;;;;;5.70;5.40;;;23.60;53.20;;;;;;5028252;28;20683;-73
2023/08/18 03:42:33;;;;;;;6.03;5.53;;;23.60;53.20;;;;;;5029505;28;20302;-73
2023/08/18 03:44:59;;;;;;;5.00;4.70;;;23.60;53.30;;;;;;5028972;28;20467;-73
2023/08/18 03:47:24;;;;;;;5.80;5.40;;;23.60;53.20;;;;;;5013107;28;20261;-73
2023/08/18 03:49:50;;;;;;;5.50;5.10;;;23.60;53.30;;;;;;5010811;28;20609;-73
2023/08/18 03:52:15;;;;;;;5.47;5.13;;;23.60;53.20;;;;;;5012022;28;20233;-73
2023/08/18 03:54:41;;;;;;;5.00;4.70;;;23.60;53.20;;;;;;5029759;28;20258;-75
2023/08/18 03:57:07;;;;;;;5.33;4.93;;;23.60;53.30;;;;;;5027787;28;20218;-73
2023/08/18 03:59:32;;;;;;;5.13;4.80;;;23.60;53.20;;;;;;5012899;28;20221;-73
2023/08/18 04:01:58;;;;;;;5.33;4.97;;;23.60;53.20;;;;;;5009785;28;20308;-73
2023/08/18 04:04:24;;;;;;;4.93;4.57;;;23.60;53.20;;;;;;5032606;28;20218;-73
2023/08/18 04:06:49;;;;;;;5.10;4.80;;;23.60;53.20;;;;;;5012412;28;20267;-73
2023/08/18 04:09:15;;;;;;;4.27;4.00;;;23.60;53.20;;;;;;5031570;28;20229;-73
2023/08/18 04:11:42;;;;;;;5.00;4.63;;;23.60;53.20;;;;;;5012360;28;20229;-74
2023/08/18 04:14:08;;;;;;;5.00;4.70;;;23.60;53.20;;;;;;5031480;28;20471;-73
2023/08/18 04:16:34;;;;;;;5.70;5.40;;;23.60;53.20;;;;;;5029083;28;20609;-73
2023/08/18 04:19:06;;;;;;;5.10;4.80;;;23.60;53.30;;;;;;5030931;28;20647;-73
2023/08/18 04:21:32;;;;;;;4.73;4.43;;;23.60;53.20;;;;;;5027985;28;20233;-73
2023/08/18 04:23:58;;;;;;;4.20;4.00;;;23.60;53.20;;;;;;5007432;28;20521;-73
2023/08/18 04:26:23;;;;;;;5.70;5.33;;;23.60;53.30;;;;;;5025308;28;20514;-74
2023/08/18 04:28:49;;;;;;;4.90;4.60;;;23.60;53.20;;;;;;5010382;28;20222;-74
2023/08/18 04:31:15;;;;;;;4.77;4.40;;;23.60;53.30;;;;;;5027013;28;20394;-75
2023/08/18 04:33:40;;;;;;;4.90;4.50;;;23.60;53.20;;;;;;5035003;28;20233;-74
2023/08/18 04:36:06;;;;;;;4.83;4.47;;;23.60;53.20;;;;;;5031281;28;20339;-75
2023/08/18 04:38:31;;;;;;;4.50;4.30;;;23.60;53.20;;;;;;5032129;28;20296;-76
2023/08/18 04:40:57;;;;;;;4.80;4.50;;;23.60;53.20;;;;;;5033008;28;20218;-74
2023/08/18 04:43:23;;;;;;;4.50;4.30;;;23.60;53.20;;;;;;5036172;28;20219;-75
2023/08/18 04:45:49;;;;;;;4.50;4.30;;;23.60;53.20;;;;;;5011087;28;20521;-78
2023/08/18 04:48:14;;;;;;;4.43;4.13;;;23.60;53.20;;;;;;5030494;28;20222;-73
2023/08/18 04:50:40;;;;;;;4.70;4.40;;;23.60;53.30;;;;;;5028814;28;20567;-75
2023/08/18 04:53:05;;;;;;;4.97;4.67;;;23.60;53.20;;;;;;5014536;28;21258;-74
2023/08/18 04:55:33;;;;;;;4.60;4.30;;;23.60;53.20;;;;;;5027183;28;20352;-74
2023/08/18 04:57:59;;;;;;;4.40;4.20;;;23.60;53.20;;;;;;5015926;28;21178;-74
2023/08/18 05:00:24;;;;;;;4.53;4.33;;;23.60;53.20;;;;;;5016856;28;20977;-75
2023/08/18 05:02:50;;;;;;;4.33;4.13;;;23.60;53.20;;;;;;5032450;28;20230;-74
2023/08/18 05:05:17;;;;;;;5.57;5.07;;;23.60;53.20;;;;;;5032048;28;20226;-74
2023/08/18 05:07:43;;;;;;;5.27;4.93;;;23.60;53.20;;;;;;5036787;28;20475;-73
2023/08/18 05:10:08;;;;;;;4.50;4.30;;;23.60;53.20;;;;;;5034454;28;20502;-73
2023/08/18 05:12:34;;;;;;;4.40;4.20;;;23.60;53.20;;;;;;5032321;28;20248;-73
2023/08/18 05:14:59;;;;;;;5.00;4.70;;;23.60;53.30;;;;;;5032819;28;20261;-73
2023/08/18 05:17:25;;;;;;;5.53;5.23;;;23.60;53.20;;;;;;5034892;28;20374;-79
2023/08/18 05:19:50;;;;;;;5.30;4.87;;;23.60;53.20;;;;;;5029274;28;20226;-73
2023/08/18 05:22:16;;;;;;;5.53;5.23;;;23.60;53.30;;;;;;5010284;28;20238;-75
2023/08/18 05:24:41;;;;;;;5.50;5.10;;;23.60;53.20;;;;;;5015582;28;20233;-74
2023/08/18 05:27:07;;;;;;;6.00;5.53;;;23.60;53.20;;;;;;5026062;28;20242;-74
2023/08/18 05:29:32;;;;;;;5.17;4.90;;;23.60;53.20;;;;;;5028321;28;20226;-74
2023/08/18 05:31:58;;;;;;;5.87;5.47;;;23.60;53.20;;;;;;5033685;28;20227;-74
2023/08/18 05:34:24;;;;;;;6.17;5.77;;;23.60;53.30;;;;;;5035295;28;20219;-76
2023/08/18 05:36:51;;;;;;;6.13;5.53;;;23.70;53.30;;;;;;5031302;28;20703;-74
2023/08/18 05:39:17;;;;;;;5.40;5.10;;;23.70;53.30;;;;;;5035137;28;20639;-74
2023/08/18 05:41:43;;;;;;;5.00;4.70;;;23.70;53.30;;;;;;5031196;28;20467;-74
2023/08/18 05:44:09;;;;;;;5.47;5.17;;;23.70;53.30;;;;;;5036056;28;20229;-74
2023/08/18 05:46:35;;;;;;;4.93;4.73;;;23.70;53.30;;;;;;5029643;28;21001;-74
2023/08/18 05:49:00;;;;;;;5.43;5.07;;;23.70;53.30;;;;;;5035621;28;20693;-75
2023/08/18 05:51:26;;;;;;;5.90;5.50;;;23.70;53.30;;;;;;5034685;28;20592;-74
2023/08/18 05:53:51;;;;;;;5.47;5.17;;;23.70;53.30;;;;;;5034745;28;20214;-78
2023/08/18 05:56:17;;;;;;;5.37;4.97;;;23.60;53.20;;;;;;5032911;28;20264;-78
2023/08/18 05:58:43;;;;;;;5.17;4.87;;;23.70;53.30;;;;;;5011839;28;20685;-78
2023/08/18 06:01:09;;;;;;;5.50;5.20;;;23.70;53.30;;;;;;5014043;28;20525;-78
2023/08/18 06:03:34;;;;;;;5.17;4.87;;;23.70;53.30;;;;;;5015004;28;20316;-78
2023/08/18 06:06:02;;;;;;;6.20;5.90;;;23.70;53.30;;;;;;5033779;28;20946;-78
2023/08/18 06:08:28;;;;;;;5.60;5.30;;;23.70;53.30;;;;;;5012243;28;20241;-77
2023/08/18 06:11:00;;;;;;;6.00;5.50;;;23.70;53.30;;;;;;5033762;28;20447;-78
2023/08/18 06:13:25;;;;;;;5.70;5.30;;;23.70;53.30;;;;;;5015054;28;20481;-78
2023/08/18 06:15:54;;;;;;;5.23;4.93;;;23.70;53.30;;;;;;5033551;28;20221;-77
2023/08/18 06:18:20;;;;;;;5.97;5.57;;;23.70;53.30;;;;;;5034820;28;20324;-77
2023/08/18 06:20:45;;;;;;;5.17;4.77;;;23.70;53.30;;;;;;5015205;28;22786;-77
2023/08/18 06:23:11;;;;;;;5.10;4.80;;;23.70;53.30;;;;;;5034855;28;20458;-77
2023/08/18 06:25:37;;;;;;;5.63;5.33;;;23.70;53.30;;;;;;5031602;28;20811;-77
2023/08/18 06:28:02;;;;;;;5.30;5.00;;;23.70;53.30;;;;;;5034796;28;20283;-77
2023/08/18 06:30:28;;;;;;;5.60;5.30;;;23.70;53.30;;;;;;5034359;28;20282;-77
2023/08/18 06:32:53;;;;;;;5.57;5.27;;;23.70;53.30;;;;;;5015980;28;20224;-76
2023/08/18 06:35:19;;;;;;;5.73;5.40;;;23.70;53.30;;;;;;5032447;28;20222;-76
2023/08/18 06:37:44;;;;;;;6.70;6.30;;;23.70;53.30;;;;;;5014224;28;20731;-76
2023/08/18 06:40:10;;;;;;;6.53;5.97;;;23.70;53.30;;;;;;5011924;28;20233;-76
2023/08/18 06:42:36;;;;;;;5.53;5.23;;;23.70;53.30;;;;;;5030478;28;20234;-77
2023/08/18 06:45:03;;;;;;;6.83;6.43;;;23.70;53.30;;;;;;5010403;28;20354;-76
2023/08/18 06:47:29;;;;;;;5.50;5.20;;;23.70;53.30;;;;;;5031001;28;20233;-77
2023/08/18 06:49:54;;;;;;;5.10;4.90;;;23.70;53.30;;;;;;5031935;28;20459;-77
2023/08/18 06:52:20;;;;;;;5.57;5.27;;;23.70;53.30;;;;;;5034304;28;20734;-76
2023/08/18 06:54:47;;;;;;;6.00;5.60;;;23.70;53.30;;;;;;5034568;28;20222;-77
2023/08/18 06:57:12;;;;;;;6.50;6.10;;;23.70;53.30;;;;;;5034092;28;20222;-76
2023/08/18 06:59:38;;;;;;;5.43;5.13;;;23.70;53.30;;;;;;5015231;28;20548;-77
2023/08/18 07:02:03;;;;;;;6.43;6.03;;;23.60;53.20;;;;;;5030589;28;20232;-77
2023/08/18 07:04:29;;;;;;;5.33;5.03;;;23.60;53.20;;;;;;5034485;28;20222;-77
2023/08/18 07:06:54;;;;;;;5.53;5.23;;;23.70;53.30;;;;;;5031881;28;20685;-77
2023/08/18 07:09:20;;;;;;;5.30;5.00;;;23.70;53.30;;;;;;5033336;28;20244;-77
2023/08/18 07:11:46;;;;;;;5.50;5.20;;;23.70;53.30;;;;;;5032694;28;22873;-77
2023/08/18 07:14:11;;;;;;;6.23;5.83;;;23.70;53.30;;;;;;5031988;28;20313;-77
2023/08/18 07:16:37;;;;;;;6.20;5.87;;;23.70;53.30;;;;;;5030868;28;20230;-78
2023/08/18 07:19:03;;;;;;;5.77;5.47;;;23.70;53.30;;;;;;5031119;28;21222;-77
2023/08/18 07:21:29;;;;;;;6.00;5.70;;;23.70;53.30;;;;;;5031327;28;20341;-77
2023/08/18 07:23:54;;;;;;;5.83;5.50;;;23.70;53.30;;;;;;5032889;28;20237;-78
2023/08/18 07:26:20;;;;;;;6.20;5.80;;;23.70;53.30;;;;;;5030407;28;20679;-77
2023/08/18 07:28:45;;;;;;;6.30;5.80;;;23.70;53.30;;;;;;5031347;28;20249;-77
2023/08/18 07:31:11;;;;;;;6.13;5.73;;;23.70;53.30;;;;;;5011052;28;20230;-77
2023/08/18 07:33:36;;;;;;;5.83;5.53;;;23.70;53.30;;;;;;5013380;28;20245;-77
2023/08/18 07:36:02;;;;;;;5.83;5.43;;;23.70;53.30;;;;;;5011533;28;20297;-77
2023/08/18 07:38:29;;;;;;;5.83;5.53;;;23.70;53.30;;;;;;5012496;28;20229;-77
2023/08/18 07:40:55;;;;;;;5.47;5.07;;;23.70;53.30;;;;;;5034258;28;20470;-77
2023/08/18 07:43:20;;;;;;;5.13;4.87;;;23.70;53.30;;;;;;5024764;28;21167;-76
2023/08/18 07:45:46;;;;;;;5.70;5.30;;;23.70;53.30;;;;;;5029185;28;20234;-76
2023/08/18 07:48:12;;;;;;;5.00;4.80;;;23.70;53.30;;;;;;5031552;28;20241;-76
2023/08/18 07:50:39;;;;;;;5.40;5.10;;;23.70;53.30;;;;;;5010894;28;20233;-76
2023/08/18 07:53:05;;;;;;;5.67;5.37;;;23.70;53.30;;;;;;5012224;28;20226;-76
2023/08/18 07:55:30;;;;;;;5.90;5.60;;;23.70;53.30;;;;;;5028896;28;21151;-76
2023/08/18 07:57:56;;;;;;;6.00;5.60;;;23.70;53.30;;;;;;5013859;28;20226;-76
2023/08/18 08:00:21;;;;;;;6.03;5.63;;;23.60;53.20;;;;;;5030019;28;20218;-76
2023/08/18 08:02:48;;;;;;;5.77;5.47;;;23.70;53.30;;;;;;5033272;28;20233;-76
2023/08/18 08:05:17;;;;;;;6.20;5.80;;;23.70;53.30;;;;;;5029052;28;20252;-76
2023/08/18 08:07:43;;;;;;;5.67;5.33;;;23.70;53.30;;;;;;5011484;28;20516;-76
2023/08/18 08:10:09;;;;;;;6.37;5.87;;;23.70;53.30;;;;;;5031227;28;20467;-76
2023/08/18 08:12:38;;;;;;;5.60;5.30;;;23.60;53.20;;;;;;5012583;28;20222;-76
2023/08/18 08:15:04;;;;;;;6.57;6.10;;;23.70;53.30;;;;;;5028489;28;21316;-76
2023/08/18 08:17:30;;;;;;;5.57;5.20;;;23.70;53.30;;;;;;5031670;28;20989;-76
2023/08/18 08:19:56;;;;;;;6.20;5.90;;;23.70;53.30;;;;;;5032809;28;20464;-76
2023/08/18 08:22:22;;;;;;;5.10;4.80;;;23.60;53.20;;;;;;5013007;28;20233;-76
2023/08/18 08:24:48;;;;;;;6.03;5.63;;;23.70;53.30;;;;;;5030547;28;20672;-76
2023/08/18 08:27:15;;;;;;;5.67;5.37;;;23.70;53.30;;;;;;5011708;28;20981;-76
2023/08/18 08:29:41;;;;;;;5.57;5.27;;;23.70;53.30;;;;;;5011581;28;20351;-76
2023/08/18 08:32:06;;;;;;;5.70;5.40;;;23.60;53.20;;;;;;5025866;28;20613;-76
2023/08/18 08:34:32;;;;;;;5.30;5.07;;;23.70;53.30;;;;;;5028936;28;20229;-76
2023/08/18 08:36:58;;;;;;;4.97;4.77;;;23.70;53.30;;;;;;5030350;28;20230;-76
2023/08/18 08:39:23;;;;;;;5.70;5.40;;;23.70;53.30;;;;;;5012682;28;20225;-76
2023/08/18 08:41:49;;;;;;;5.30;5.00;;;23.70;53.40;;;;;;5011031;28;20230;-77
2023/08/18 08:44:14;;;;;;;6.07;5.73;;;23.70;53.60;;;;;;5028354;28;20345;-76
2023/08/18 08:46:40;;;;;;;5.80;5.50;;;23.70;53.60;;;;;;5027282;28;20245;-76
2023/08/18 08:49:07;;;;;;;6.00;5.70;;;23.70;53.60;;;;;;5030355;28;20284;-76
2023/08/18 08:51:37;;;;;;;5.50;5.20;;;23.70;53.60;;;;;;5008253;28;20585;-76
2023/08/18 08:54:05;;;;;;;5.30;5.00;;;23.70;53.70;;;;;;5013435;28;20451;-77
2023/08/18 08:56:32;;;;;;;5.10;4.83;;;23.70;53.70;;;;;;5007073;28;20528;-77
2023/08/18 08:58:58;;;;;;;5.83;5.50;;;23.70;53.70;;;;;;5014612;28;20463;-77
2023/08/18 09:01:24;;;;;;;4.97;4.70;;;23.70;53.70;;;;;;5027817;28;20507;-77
2023/08/18 09:03:50;;;;;;;6.20;5.80;;;23.70;53.80;;;;;;5014808;28;21133;-77
2023/08/18 09:06:16;;;;;;;5.57;5.27;;;23.70;53.80;;;;;;5025262;28;20684;-77
2023/08/18 09:08:42;;;;;;;5.43;5.13;;;23.70;53.80;;;;;;5023263;28;20513;-77
2023/08/18 09:11:08;;;;;;;5.70;5.40;;;23.70;53.80;;;;;;5008822;28;20590;-77
2023/08/18 09:13:35;;;;;;;5.97;5.67;;;23.70;53.80;;;;;;5011171;28;20682;-77
2023/08/18 09:16:03;;;;;;;5.00;4.70;;;23.70;53.80;;;;;;5008696;28;20486;-78
2023/08/18 09:18:32;;;;;;;5.50;5.20;;;23.70;53.80;;;;;;5014149;28;20969;-77
2023/08/18 09:20:57;;;;;;;5.83;5.53;;;23.70;53.80;;;;;;5033702;28;20454;-77
2023/08/18 09:23:27;;;;;;;5.77;5.47;;;23.70;53.80;;;;;;5033549;28;20485;-77
2023/08/18 09:25:55;;;;;;;5.83;5.53;;;23.70;53.90;;;;;;5031495;28;20221;-78
2023/08/18 09:28:20;;;;;;;5.60;5.20;;;23.70;53.80;;;;;;5034368;28;20495;-77
2023/08/18 09:30:46;;;;;;;4.50;4.30;;;23.70;53.80;;;;;;5031240;28;20478;-77
2023/08/18 09:33:12;;;;;;;4.93;4.73;;;23.70;53.80;;;;;;5034216;28;20232;-77
2023/08/18 09:35:38;;;;;;;5.77;5.47;;;23.70;53.90;;;;;;5029935;28;20505;-79
2023/08/18 09:38:03;;;;;;;5.50;5.17;;;23.70;53.80;;;;;;5024650;28;20306;-76
2023/08/18 09:40:29;;;;;;;4.93;4.63;;;23.70;53.70;;;;;;5029726;28;20229;-76
2023/08/18 09:42:55;;;;;;;5.33;5.03;;;23.70;53.80;;;;;;5013503;28;20241;-75
2023/08/18 09:45:23;;;;;;;4.90;4.70;;;23.70;53.80;;;;;;5027748;28;20229;-76
2023/08/18 09:47:56;;;;;;;4.80;4.60;;;23.70;53.70;;;;;;5028093;28;20474;-80
2023/08/18 09:50:26;;;;;;;5.23;4.93;;;23.70;53.70;;;;;;5032991;28;20654;-75
2023/08/18 09:52:57;;;;;;;4.70;4.50;;;23.70;53.60;;;;;;5029292;28;20459;-77
2023/08/18 09:55:37;;;;;;;4.93;4.73;;;23.80;53.80;;;;;;5034893;28;20451;-76
2023/08/18 09:58:16;;;;;;;4.77;4.57;;;23.80;53.70;;;;;;5031525;28;20473;-76
2023/08/18 10:00:43;;;;;;;4.60;4.40;;;23.80;53.70;;;;;;5033311;28;20459;-76
2023/08/18 10:03:16;;;;;;;4.77;4.50;;;23.80;53.70;;;;;;5035607;28;20555;-76
2023/08/18 10:05:42;;;;;;;4.70;4.50;;;23.80;53.60;;;;;;5031986;28;20970;-77
2023/08/18 10:08:07;;;;;;;5.03;4.73;;;23.80;53.60;;;;;;5031097;28;20557;-79
2023/08/18 10:10:34;;;;;;;4.77;4.57;;;23.80;53.70;;;;;;5032225;28;20520;-77
2023/08/18 10:12:59;;;;;;;4.70;4.50;;;23.80;53.60;;;;;;5039958;28;20231;-79
2023/08/18 10:15:25;;;;;;;4.67;4.47;;;23.80;53.60;;;;;;5023306;28;20434;-80
2023/08/18 10:17:51;;;;;;;5.10;4.90;;;23.80;53.60;;;;;;5038928;28;20341;-77
2023/08/18 10:20:17;;;;;;;4.97;4.77;;;23.80;53.60;;;;;;5039955;28;20455;-76
2023/08/18 10:22:43;;;;;;;4.70;4.50;;;23.80;53.60;;;;;;5045918;28;20307;-77
2023/08/18 10:25:09;;;;;;;4.80;4.60;;;23.80;53.60;;;;;;5024994;28;20312;-77
2023/08/18 10:27:41;;;;;;;5.00;4.80;;;23.80;53.60;;;;;;5041082;28;21056;-77
2023/08/18 10:30:07;;;;;;;4.60;4.30;;;23.80;53.60;;;;;;5039389;28;20237;-77
2023/08/18 10:32:33;;;;;;;4.90;4.70;;;23.80;53.50;;;;;;5024921;28;20485;-77
2023/08/18 10:35:23;;;;;;;4.60;4.40;;;23.80;53.50;;;;;;5042238;28;20225;-80
2023/08/18 10:37:50;;;;;;;5.70;5.40;;;23.80;53.50;;;;;;5016637;28;20561;-73
2023/08/18 10:40:29;;;;;;;5.20;4.90;;;23.80;53.50;;;;;;5040724;28;20474;-74
2023/08/18 10:43:27;;;;;;;4.23;4.03;;;23.80;53.50;;;;;;5040881;28;20993;-74
2023/08/18 10:45:59;;;;;;;5.10;4.90;;;23.80;53.50;;;;;;4989364;28;20565;-77
2023/08/18 10:48:32;;;;;;;5.00;4.80;;;23.80;53.50;;;;;;5035463;28;20467;-75
2023/08/18 10:50:58;;;;;;;4.70;4.50;;;23.80;54.20;;;;;;5030786;28;20505;-74
2023/08/18 10:53:25;;;;;;;5.00;4.80;;;23.80;53.50;;;;;;5032287;28;20553;-82
2023/08/18 10:55:53;;;;;;;4.97;4.77;;;23.80;53.50;;;;;;5039946;28;20222;-83
2023/08/18 10:58:20;;;;;;;5.20;4.90;;;23.80;53.50;;;;;;5024502;28;20459;-78
2023/08/18 11:00:46;;;;;;;5.10;4.90;;;23.80;53.50;;;;;;5037013;28;20467;-78
2023/08/18 11:03:13;;;;;;;4.17;3.97;;;23.80;53.60;;;;;;5022071;28;20453;-78
2023/08/18 11:05:39;;;;;;;4.97;4.77;;;23.80;53.50;;;;;;5018763;28;20245;-78
2023/08/18 11:08:09;;;;;;;4.60;4.40;;;23.80;53.50;;;;;;5038633;28;20477;-78
2023/08/18 11:10:37;;;;;;;4.60;4.40;;;23.80;53.50;;;;;;5021362;28;20466;-78
2023/08/18 11:13:03;;;;;;;5.00;4.70;;;23.80;54.20;;;;;;5024217;28;20475;-79
2023/08/18 11:15:29;;;;;;;4.80;4.60;;;23.80;53.50;;;;;;5022908;28;21095;-80
2023/08/18 11:17:55;;;;;;;5.00;4.80;;;23.80;53.50;;;;;;5024764;28;20214;-79
2023/08/18 11:20:21;;;;;;;4.63;4.43;;;23.80;53.40;;;;;;5037679;28;20256;-79
2023/08/18 11:22:54;;;;;;;4.87;4.67;;;23.80;53.40;;;;;;5021933;28;20464;-80
2023/08/18 11:25:23;;;;;;;4.63;4.43;;;23.80;53.40;;;;;;5037604;28;20458;-80
2023/08/18 11:27:51;;;;;;;4.43;4.23;;;23.80;53.40;;;;;;5020831;28;20456;-79
2023/08/18 11:30:16;;;;;;;4.97;4.77;;;23.80;53.40;;;;;;5035762;28;20509;-79
2023/08/18 11:32:45;;;;;;;5.17;4.90;;;23.80;53.40;;;;;;5038249;28;20464;-79
2023/08/18 11:35:12;;;;;;;4.67;4.37;;;23.90;53.50;;;;;;5039012;28;20230;-80
2023/08/18 11:37:40;;;;;;;4.90;4.70;;;23.80;53.40;;;;;;5022734;28;20565;-79
2023/08/18 11:40:10;;;;;;;4.97;4.67;;;23.80;53.40;;;;;;5039300;28;20459;-79
2023/08/18 11:42:43;;;;;;;4.90;4.70;;;23.80;53.50;;;;;;5036824;28;20542;-79
2023/08/18 11:45:16;;;;;;;4.90;4.70;;;23.90;53.50;;;;;;5038885;28;20540;-79
2023/08/18 11:47:43;;;;;;;4.70;4.50;;;23.90;53.50;;;;;;5040141;28;20463;-79
2023/08/18 11:50:09;;;;;;;4.80;4.60;;;23.90;53.50;;;;;;5019543;28;20499;-79
2023/08/18 11:52:46;;;;;;;5.20;5.00;;;23.80;53.40;;;;;;5019102;28;20459;-76
2023/08/18 11:55:12;;;;;;;4.87;4.67;;;23.90;53.50;;;;;;5037901;28;20458;-75
2023/08/18 11:57:45;;;;;;;4.57;4.37;;;23.90;53.50;;;;;;5040173;28;20542;-75
2023/08/18 12:00:13;;;;;;;4.57;4.37;;;23.90;53.50;;;;;;5037341;28;20467;-75
2023/08/18 12:02:46;;;;;;;5.13;4.93;;;23.90;53.50;;;;;;5038821;28;20471;-75
2023/08/18 12:05:20;;;;;;;4.60;4.40;;;23.90;53.50;;;;;;5033073;28;20576;-75
2023/08/18 12:07:45;;;;;;;5.30;5.10;;;23.90;53.50;;;;;;5039189;28;20566;-75
2023/08/18 12:10:11;;;;;;;4.50;4.30;;;23.90;53.50;;;;;;5034593;28;21002;-75
2023/08/18 12:12:37;;;;;;;4.80;4.60;;;23.90;53.50;;;;;;5031996;28;21060;-76
2023/08/18 12:15:03;;;;;;;4.27;4.07;;;23.90;53.50;;;;;;5039329;28;20474;-75
2023/08/18 12:17:28;;;;;;;4.80;4.60;;;23.90;53.50;;;;;;5039131;28;20271;-75
2023/08/18 12:19:54;;;;;;;5.10;4.90;;;23.90;53.50;;;;;;5039672;28;20228;-75
2023/08/18 12:22:19;;;;;;;4.90;4.60;;;23.90;53.50;;;;;;5037919;28;20301;-75
2023/08/18 12:24:45;;;;;;;4.70;4.50;;;23.90;53.50;;;;;;5024885;28;20302;-75
2023/08/18 12:27:10;;;;;;;4.90;4.70;;;23.90;53.50;;;;;;5039200;28;20656;-75
2023/08/18 12:29:36;;;;;;;4.50;4.30;;;23.90;53.50;;;;;;5040642;28;21939;-75
2023/08/18 12:32:01;;;;;;;4.77;4.57;;;23.90;53.50;;;;;;5036029;28;20240;-74
2023/08/18 12:34:27;;;;;;;5.27;4.97;;;23.90;53.50;;;;;;5023846;28;20225;-75
2023/08/18 12:36:52;;;;;;;4.50;4.30;;;23.90;53.50;;;;;;5019469;28;20218;-75
2023/08/18 12:39:18;;;;;;;4.43;4.23;;;23.90;53.50;;;;;;5040911;28;20588;-74
2023/08/18 12:41:44;;;;;;;5.10;4.90;;;23.90;53.50;;;;;;5038491;28;20233;-75
2023/08/18 12:44:10;;;;;;;4.33;4.13;;;23.90;53.50;;;;;;5039643;28;20272;-75
2023/08/18 12:46:36;;;;;;;5.00;4.80;;;23.90;53.50;;;;;;5040054;28;20912;-76